sensor_id;sensor_type;location;lat;lon;timestamp;pressure;altitude;pressure_sealevel;temperature;humidity
51781;BME280;37844;57.126;24.288;2022-10-14T11:47:40;101624.72;;;14.74;80.10
51781;BME280;37844;57.126;24.288;2022-10-14T11:50:18;101637.72;;;14.74;79.88
51781;BME280;37844;57.126;24.288;2022-10-14T11:55:22;101625.59;;;14.74;80.70
51781;BME280;37844;57.126;24.288;2022-10-14T11:57:56;101616.09;;;14.78;81.49
51781;BME280;37844;57.126;24.288;2022-10-14T12:00:25;101640.34;;;14.80;81.10
51781;BME280;37844;57.126;24.288;2022-10-14T12:03:26;101619.63;;;14.84;80.47
51781;BME280;37844;57.126;24.288;2022-10-14T12:06:36;101613.56;;;14.81;81.06
51781;BME280;37844;57.126;24.288;2022-10-14T12:09:07;101612.66;;;14.79;81.39
51781;BME280;37844;57.126;24.288;2022-10-14T12:11:39;101617.84;;;14.79;81.82
51781;BME280;37844;57.126;24.288;2022-10-14T12:14:16;101624.81;;;14.83;81.25
51781;BME280;37844;57.126;24.288;2022-10-14T12:16:43;101632.59;;;14.83;80.50
51781;BME280;37844;57.126;24.288;2022-10-14T12:19:11;101609.16;;;14.75;79.99
51781;BME280;37844;57.126;24.288;2022-10-14T12:22:15;101622.19;;;14.81;80.70
51781;BME280;37844;57.126;24.288;2022-10-14T12:24:45;101619.59;;;14.78;80.24
51781;BME280;37844;57.126;24.288;2022-10-14T12:27:13;101608.34;;;14.79;80.20
51781;BME280;37844;57.126;24.288;2022-10-14T12:29:44;101618.63;;;14.70;80.15
51781;BME280;37844;57.126;24.288;2022-10-14T12:34:42;101604.00;;;14.78;81.21
51781;BME280;37844;57.126;24.288;2022-10-14T12:39:53;101605.72;;;14.78;80.58
51781;BME280;37844;57.126;24.288;2022-10-14T12:42:20;101610.91;;;14.76;81.17
51781;BME280;37844;57.126;24.288;2022-10-14T12:44:47;101605.72;;;14.78;81.34
51781;BME280;37844;57.126;24.288;2022-10-14T12:47:18;101604.88;;;14.79;81.27
51781;BME280;37844;57.126;24.288;2022-10-14T12:49:52;101616.09;;;14.78;81.07
51781;BME280;37844;57.126;24.288;2022-10-14T12:52:26;101616.97;;;14.80;80.78
51781;BME280;37844;57.126;24.288;2022-10-14T12:54:54;101601.38;;;14.75;80.84
51781;BME280;37844;57.126;24.288;2022-10-14T12:57:28;101614.41;;;14.81;80.94
51781;BME280;37844;57.126;24.288;2022-10-14T12:59:58;101601.31;;;14.71;81.61
51781;BME280;37844;57.126;24.288;2022-10-14T13:05:04;101618.41;;;14.50;80.94
51781;BME280;37844;57.126;24.288;2022-10-14T13:07:42;101607.06;;;14.42;81.36
51781;BME280;37844;57.126;24.288;2022-10-14T13:18:58;101603.50;;;14.34;84.32
51781;BME280;37844;57.126;24.288;2022-10-14T13:24:00;101593.19;;;14.40;84.83
51781;BME280;37844;57.126;24.288;2022-10-14T13:32:09;101587.19;;;14.44;85.29
51781;BME280;37844;57.126;24.288;2022-10-14T13:39:52;101582.88;;;14.45;86.47
51781;BME280;37844;57.126;24.288;2022-10-14T13:42:24;101581.09;;;14.39;86.63
51781;BME280;37844;57.126;24.288;2022-10-14T13:44:52;101571.53;;;14.35;87.44
51781;BME280;37844;57.126;24.288;2022-10-14T13:47:20;101572.38;;;14.31;88.05
51781;BME280;37844;57.126;24.288;2022-10-14T13:49:46;101570.66;;;14.34;88.65
51781;BME280;37844;57.126;24.288;2022-10-14T13:52:20;101572.38;;;14.34;88.63
51781;BME280;37844;57.126;24.288;2022-10-14T13:54:47;101573.28;;;14.37;89.34
51781;BME280;37844;57.126;24.288;2022-10-14T13:57:15;101568.97;;;14.36;89.68
51781;BME280;37844;57.126;24.288;2022-10-14T13:59:44;101574.13;;;14.35;89.85
51781;BME280;37844;57.126;24.288;2022-10-14T14:02:15;101579.28;;;14.32;90.46
51781;BME280;37844;57.126;24.288;2022-10-14T14:04:46;101581.94;;;14.36;90.31
51781;BME280;37844;57.126;24.288;2022-10-14T14:07:16;101575.84;;;14.34;90.48
51781;BME280;37844;57.126;24.288;2022-10-14T14:09:50;101572.31;;;14.28;90.70
51781;BME280;37844;57.126;24.288;2022-10-14T14:12:18;101579.25;;;14.30;90.73
51781;BME280;37844;57.126;24.288;2022-10-14T14:14:45;101568.81;;;14.26;90.83
51781;BME280;37844;57.126;24.288;2022-10-14T14:17:15;101576.63;;;14.27;91.28
51781;BME280;37844;57.126;24.288;2022-10-14T14:19:44;101562.72;;;14.19;92.06
51781;BME280;37844;57.126;24.288;2022-10-14T14:22:30;101576.59;;;14.26;92.22
51781;BME280;37844;57.126;24.288;2022-10-14T14:27:50;101570.47;;;14.17;92.77
51781;BME280;37844;57.126;24.288;2022-10-14T14:30:26;101573.88;;;14.13;93.43
51781;BME280;37844;57.126;24.288;2022-10-14T14:32:54;101578.19;;;14.10;93.64
51781;BME280;37844;57.126;24.288;2022-10-14T14:35:20;101570.34;;;14.05;94.21
51781;BME280;37844;57.126;24.288;2022-10-14T14:37:46;101571.19;;;14.03;94.73
51781;BME280;37844;57.126;24.288;2022-10-14T14:40:16;101571.13;;;13.99;95.22
51781;BME280;37844;57.126;24.288;2022-10-14T14:42:42;101568.47;;;13.95;95.79
51781;BME280;37844;57.126;24.288;2022-10-14T14:45:22;101573.69;;;13.96;96.30
51781;BME280;37844;57.126;24.288;2022-10-14T14:47:51;101580.59;;;13.96;96.58
51781;BME280;37844;57.126;24.288;2022-10-14T14:50:21;101572.81;;;13.97;96.79
51781;BME280;37844;57.126;24.288;2022-10-14T14:52:48;101577.06;;;13.89;97.27
51781;BME280;37844;57.126;24.288;2022-10-14T14:55:42;101581.38;;;13.89;98.01
51781;BME280;37844;57.126;24.288;2022-10-14T14:58:20;101583.97;;;13.89;98.35
51781;BME280;37844;57.126;24.288;2022-10-14T15:00:47;101581.31;;;13.84;98.61
51781;BME280;37844;57.126;24.288;2022-10-14T15:03:14;101583.00;;;13.82;99.10
51781;BME280;37844;57.126;24.288;2022-10-14T15:05:39;101582.16;;;13.83;99.62
51781;BME280;37844;57.126;24.288;2022-10-14T15:08:18;101577.03;;;13.86;99.82
51781;BME280;37844;57.126;24.288;2022-10-14T15:10:47;101577.81;;;13.82;99.91
51781;BME280;37844;57.126;24.288;2022-10-14T15:13:27;101576.97;;;13.83;100.00
51781;BME280;37844;57.126;24.288;2022-10-14T15:15:52;101580.38;;;13.81;100.00
51781;BME280;37844;57.126;24.288;2022-10-14T15:20:43;101575.13;;;13.74;100.00
51781;BME280;37844;57.126;24.288;2022-10-14T15:23:41;101568.19;;;13.73;100.00
51781;BME280;37844;57.126;24.288;2022-10-14T15:26:33;101569.03;;;13.69;100.00
51781;BME280;37844;57.126;24.288;2022-10-14T15:31:42;101570.69;;;13.66;100.00
51781;BME280;37844;57.126;24.288;2022-10-14T15:34:35;101571.47;;;13.58;100.00
51781;BME280;37844;57.126;24.288;2022-10-14T15:37:01;101569.72;;;13.59;100.00
51781;BME280;37844;57.126;24.288;2022-10-14T15:39:26;101567.19;;;13.61;100.00
51781;BME280;37844;57.126;24.288;2022-10-14T15:41:52;101573.19;;;13.58;100.00
51781;BME280;37844;57.126;24.288;2022-10-14T15:44:17;101570.63;;;13.60;100.00
51781;BME280;37844;57.126;24.288;2022-10-14T15:46:44;101563.59;;;13.52;100.00
51781;BME280;37844;57.126;24.288;2022-10-14T15:49:36;101564.47;;;13.51;100.00
51781;BME280;37844;57.126;24.288;2022-10-14T15:52:03;101572.19;;;13.48;100.00
51781;BME280;37844;57.126;24.288;2022-10-14T15:54:29;101573.00;;;13.44;100.00
51781;BME280;37844;57.126;24.288;2022-10-14T15:56:55;101572.16;;;13.47;100.00
51781;BME280;37844;57.126;24.288;2022-10-14T15:59:22;101576.41;;;13.42;100.00
51781;BME280;37844;57.126;24.288;2022-10-14T16:01:47;101571.19;;;13.39;100.00
51781;BME280;37844;57.126;24.288;2022-10-14T16:04:19;101570.28;;;13.38;100.00
51781;BME280;37844;57.126;24.288;2022-10-14T16:06:47;101567.72;;;13.38;100.00
51781;BME280;37844;57.126;24.288;2022-10-14T16:09:12;101574.63;;;13.38;100.00
51781;BME280;37844;57.126;24.288;2022-10-14T16:11:38;101573.69;;;13.32;100.00
51781;BME280;37844;57.126;24.288;2022-10-14T16:14:04;101583.13;;;13.30;100.00
51781;BME280;37844;57.126;24.288;2022-10-14T16:16:35;101573.59;;;13.28;100.00
51781;BME280;37844;57.126;24.288;2022-10-14T16:19:01;101573.53;;;13.26;100.00
51781;BME280;37844;57.126;24.288;2022-10-14T16:21:28;101577.84;;;13.24;100.00
51781;BME280;37844;57.126;24.288;2022-10-14T16:23:57;101575.19;;;13.21;100.00
51781;BME280;37844;57.126;24.288;2022-10-14T16:26:24;101579.47;;;13.18;100.00
51781;BME280;37844;57.126;24.288;2022-10-14T16:28:50;101576.03;;;13.19;100.00
51781;BME280;37844;57.126;24.288;2022-10-14T16:31:16;101577.66;;;13.13;100.00
51781;BME280;37844;57.126;24.288;2022-10-14T16:33:42;101572.50;;;13.13;100.00
51781;BME280;37844;57.126;24.288;2022-10-14T16:36:14;101572.44;;;13.10;100.00
51781;BME280;37844;57.126;24.288;2022-10-14T16:38:40;101581.94;;;13.11;100.00
51781;BME280;37844;57.126;24.288;2022-10-14T16:41:06;101580.16;;;13.06;100.00
51781;BME280;37844;57.126;24.288;2022-10-14T16:43:34;101573.13;;;12.99;100.00
51781;BME280;37844;57.126;24.288;2022-10-14T16:46:01;101570.50;;;12.97;100.00
51781;BME280;37844;57.126;24.288;2022-10-14T16:48:28;101573.13;;;13.00;100.00
51781;BME280;37844;57.126;24.288;2022-10-14T16:50:54;101572.34;;;13.03;100.00
51781;BME280;37844;57.126;24.288;2022-10-14T16:53:20;101571.28;;;12.93;100.00
51781;BME280;37844;57.126;24.288;2022-10-14T16:56:05;101576.53;;;12.96;100.00
51781;BME280;37844;57.126;24.288;2022-10-14T16:58:51;101574.69;;;12.90;100.00
51781;BME280;37844;57.126;24.288;2022-10-14T17:01:16;101577.25;;;12.87;100.00
51781;BME280;37844;57.126;24.288;2022-10-14T17:03:41;101572.88;;;12.85;100.00
51781;BME280;37844;57.126;24.288;2022-10-14T17:06:07;101575.44;;;12.82;100.00
51781;BME280;37844;57.126;24.288;2022-10-14T17:08:32;101564.16;;;12.78;100.00
51781;BME280;37844;57.126;24.288;2022-10-14T17:10:58;101577.91;;;12.76;100.00
51781;BME280;37844;57.126;24.288;2022-10-14T17:13:23;101570.16;;;12.76;100.00
51781;BME280;37844;57.126;24.288;2022-10-14T17:15:49;101573.56;;;12.73;100.00
51781;BME280;37844;57.126;24.288;2022-10-14T17:18:15;101574.41;;;12.72;100.00
51781;BME280;37844;57.126;24.288;2022-10-14T17:20:41;101569.19;;;12.70;100.00
51781;BME280;37844;57.126;24.288;2022-10-14T17:23:08;101575.22;;;12.69;100.00
51781;BME280;37844;57.126;24.288;2022-10-14T17:25:33;101574.41;;;12.72;100.00
51781;BME280;37844;57.126;24.288;2022-10-14T17:28:00;101569.13;;;12.66;100.00
51781;BME280;37844;57.126;24.288;2022-10-14T17:30:26;101569.06;;;12.63;100.00
51781;BME280;37844;57.126;24.288;2022-10-14T17:32:52;101569.06;;;12.64;100.00
51781;BME280;37844;57.126;24.288;2022-10-14T17:35:17;101568.25;;;12.65;100.00
51781;BME280;37844;57.126;24.288;2022-10-14T17:37:42;101570.75;;;12.62;100.00
51781;BME280;37844;57.126;24.288;2022-10-14T17:40:09;101562.13;;;12.62;100.00
51781;BME280;37844;57.126;24.288;2022-10-14T17:42:35;101562.97;;;12.59;100.00
51781;BME280;37844;57.126;24.288;2022-10-14T17:45:00;101558.56;;;12.55;100.00
51781;BME280;37844;57.126;24.288;2022-10-14T17:47:26;101562.78;;;12.50;100.00
51781;BME280;37844;57.126;24.288;2022-10-14T17:49:51;101565.47;;;12.55;100.00
51781;BME280;37844;57.126;24.288;2022-10-14T17:52:17;101554.22;;;12.52;100.00
51781;BME280;37844;57.126;24.288;2022-10-14T17:54:42;101561.16;;;12.55;100.00
51781;BME280;37844;57.126;24.288;2022-10-14T17:57:08;101556.72;;;12.48;100.00
51781;BME280;37844;57.126;24.288;2022-10-14T17:59:33;101557.66;;;12.51;100.00
51781;BME280;37844;57.126;24.288;2022-10-14T18:01:59;101565.38;;;12.50;100.00
51781;BME280;37844;57.126;24.288;2022-10-14T18:04:24;101565.31;;;12.47;100.00
51781;BME280;37844;57.126;24.288;2022-10-14T18:06:49;101557.63;;;12.50;100.00
51781;BME280;37844;57.126;24.288;2022-10-14T18:09:16;101552.34;;;12.44;100.00
51781;BME280;37844;57.126;24.288;2022-10-14T18:11:42;101556.66;;;12.43;100.00
51781;BME280;37844;57.126;24.288;2022-10-14T18:14:11;101558.34;;;12.43;100.00
51781;BME280;37844;57.126;24.288;2022-10-14T18:16:38;101561.00;;;12.46;100.00
51781;BME280;37844;57.126;24.288;2022-10-14T18:19:07;101562.75;;;12.47;100.00
51781;BME280;37844;57.126;24.288;2022-10-14T18:21:35;101566.09;;;12.43;100.00
51781;BME280;37844;57.126;24.288;2022-10-14T18:24:02;101557.34;;;12.36;100.00
51781;BME280;37844;57.126;24.288;2022-10-14T18:26:28;101554.00;;;12.39;100.00
51781;BME280;37844;57.126;24.288;2022-10-14T18:28:54;101566.91;;;12.40;100.00
51781;BME280;37844;57.126;24.288;2022-10-14T18:31:25;101562.66;;;12.42;100.00
51781;BME280;37844;57.126;24.288;2022-10-14T18:33:53;101565.16;;;12.38;100.00
51781;BME280;37844;57.126;24.288;2022-10-14T18:36:21;101569.47;;;12.37;100.00
51781;BME280;37844;57.126;24.288;2022-10-14T18:38:59;101559.78;;;12.27;100.00
51781;BME280;37844;57.126;24.288;2022-10-14T18:41:25;101560.72;;;12.30;100.00
51781;BME280;37844;57.126;24.288;2022-10-14T18:43:51;101567.66;;;12.32;100.00
51781;BME280;37844;57.126;24.288;2022-10-14T18:46:24;101570.16;;;12.28;100.00
51781;BME280;37844;57.126;24.288;2022-10-14T18:48:53;101574.53;;;12.33;100.00
51781;BME280;37844;57.126;24.288;2022-10-14T18:51:21;101571.13;;;12.35;100.00
51781;BME280;37844;57.126;24.288;2022-10-14T18:53:51;101573.78;;;12.38;100.00
51781;BME280;37844;57.126;24.288;2022-10-14T18:56:20;101572.81;;;12.33;100.00
51781;BME280;37844;57.126;24.288;2022-10-14T18:58:49;101572.81;;;12.33;100.00
51781;BME280;37844;57.126;24.288;2022-10-14T19:01:17;101575.44;;;12.35;100.00
51781;BME280;37844;57.126;24.288;2022-10-14T19:03:43;101571.19;;;12.37;100.00
51781;BME280;37844;57.126;24.288;2022-10-14T19:06:10;101577.13;;;12.33;100.00
51781;BME280;37844;57.126;24.288;2022-10-14T19:08:37;101570.22;;;12.33;100.00
51781;BME280;37844;57.126;24.288;2022-10-14T19:11:25;101566.88;;;12.37;100.00
51781;BME280;37844;57.126;24.288;2022-10-14T19:13:51;101566.03;;;12.38;100.00
51781;BME280;37844;57.126;24.288;2022-10-14T19:16:19;101571.22;;;12.40;100.00
51781;BME280;37844;57.126;24.288;2022-10-14T19:18:46;101564.16;;;12.31;100.00
51781;BME280;37844;57.126;24.288;2022-10-14T19:21:13;101568.50;;;12.34;100.00
51781;BME280;37844;57.126;24.288;2022-10-14T19:23:41;101565.91;;;12.32;100.00
51781;BME280;37844;57.126;24.288;2022-10-14T19:26:11;101567.66;;;12.33;100.00
51781;BME280;37844;57.126;24.288;2022-10-14T19:28:37;101564.16;;;12.31;100.00
51781;BME280;37844;57.126;24.288;2022-10-14T19:31:07;101561.56;;;12.31;100.00
51781;BME280;37844;57.126;24.288;2022-10-14T19:33:37;101562.44;;;12.30;100.00
51781;BME280;37844;57.126;24.288;2022-10-14T19:36:04;101551.38;;;12.37;100.00
51781;BME280;37844;57.126;24.288;2022-10-14T19:38:31;101550.31;;;12.29;100.00
51781;BME280;37844;57.126;24.288;2022-10-14T19:41:01;101553.59;;;12.17;100.00
51781;BME280;37844;57.126;24.288;2022-10-14T19:43:27;101562.25;;;12.21;100.00
51781;BME280;37844;57.126;24.288;2022-10-14T19:45:53;101551.97;;;12.24;100.00
51781;BME280;37844;57.126;24.288;2022-10-14T19:48:19;101552.03;;;12.27;100.00
51781;BME280;37844;57.126;24.288;2022-10-14T19:50:44;101555.59;;;12.34;100.00
51781;BME280;37844;57.126;24.288;2022-10-14T19:53:10;101549.50;;;12.30;100.00
51781;BME280;37844;57.126;24.288;2022-10-14T19:55:35;101552.97;;;12.30;100.00
51781;BME280;37844;57.126;24.288;2022-10-14T19:58:02;101555.59;;;12.34;100.00
51781;BME280;37844;57.126;24.288;2022-10-14T20:00:28;101552.91;;;12.27;100.00
51781;BME280;37844;57.126;24.288;2022-10-14T20:02:53;101556.41;;;12.31;100.00
51781;BME280;37844;57.126;24.288;2022-10-14T20:05:18;101552.13;;;12.33;100.00
51781;BME280;37844;57.126;24.288;2022-10-14T20:07:44;101562.47;;;12.33;100.00
51781;BME280;37844;57.126;24.288;2022-10-14T20:10:10;101546.84;;;12.25;100.00
51781;BME280;37844;57.126;24.288;2022-10-14T20:12:35;101558.97;;;12.29;100.00
51781;BME280;37844;57.126;24.288;2022-10-14T20:15:02;101556.94;;;12.15;100.00
51781;BME280;37844;57.126;24.288;2022-10-14T20:17:27;101555.25;;;12.15;100.00
51781;BME280;37844;57.126;24.288;2022-10-14T20:19:53;101555.22;;;12.14;100.00
51781;BME280;37844;57.126;24.288;2022-10-14T20:22:18;101550.13;;;12.18;100.00
51781;BME280;37844;57.126;24.288;2022-10-14T20:24:44;101552.69;;;12.17;100.00
51781;BME280;37844;57.126;24.288;2022-10-14T20:27:09;101545.88;;;12.20;100.00
51781;BME280;37844;57.126;24.288;2022-10-14T20:29:35;101550.09;;;12.17;100.00
51781;BME280;37844;57.126;24.288;2022-10-14T20:32:02;101553.59;;;12.17;100.00
51781;BME280;37844;57.126;24.288;2022-10-14T20:34:27;101556.19;;;12.19;100.00
51781;BME280;37844;57.126;24.288;2022-10-14T20:36:53;101557.09;;;12.21;100.00
51781;BME280;37844;57.126;24.288;2022-10-14T20:39:19;101559.63;;;12.19;100.00
51781;BME280;37844;57.126;24.288;2022-10-14T20:41:44;101556.13;;;12.16;100.00
51781;BME280;37844;57.126;24.288;2022-10-14T20:44:10;101547.56;;;12.18;100.00
51781;BME280;37844;57.126;24.288;2022-10-14T20:46:35;101553.50;;;12.14;100.00
51781;BME280;37844;57.126;24.288;2022-10-14T20:49:01;101555.22;;;12.14;100.00
51781;BME280;37844;57.126;24.288;2022-10-14T20:51:26;101556.94;;;12.15;100.00
51781;BME280;37844;57.126;24.288;2022-10-14T20:53:56;101555.25;;;12.15;100.00
51781;BME280;37844;57.126;24.288;2022-10-14T20:56:22;101550.09;;;12.15;100.00
51781;BME280;37844;57.126;24.288;2022-10-14T20:59:05;101554.44;;;12.18;100.00
51781;BME280;37844;57.126;24.288;2022-10-14T21:01:32;101552.69;;;12.15;100.00
51781;BME280;37844;57.126;24.288;2022-10-14T21:04:00;101554.34;;;12.13;100.00
51781;BME280;37844;57.126;24.288;2022-10-14T21:06:26;101546.56;;;12.12;100.00
51781;BME280;37844;57.126;24.288;2022-10-14T21:08:52;101547.44;;;12.12;100.00
51781;BME280;37844;57.126;24.288;2022-10-14T21:11:20;101542.16;;;12.06;100.00
51781;BME280;37844;57.126;24.288;2022-10-14T21:13:55;101542.06;;;12.01;100.00
51781;BME280;37844;57.126;24.288;2022-10-14T21:16:32;101539.34;;;11.95;100.00
51781;BME280;37844;57.126;24.288;2022-10-14T21:19:03;101541.91;;;11.94;100.00
51781;BME280;37844;57.126;24.288;2022-10-14T21:21:43;101531.59;;;11.94;100.00
51781;BME280;37844;57.126;24.288;2022-10-14T21:24:14;101537.63;;;11.96;100.00
51781;BME280;37844;57.126;24.288;2022-10-14T21:26:41;101529.88;;;11.96;100.00
51781;BME280;37844;57.126;24.288;2022-10-14T21:29:06;101533.34;;;11.96;100.00
51781;BME280;37844;57.126;24.288;2022-10-14T21:31:32;101538.47;;;11.95;100.00
51781;BME280;37844;57.126;24.288;2022-10-14T21:33:59;101534.06;;;11.89;100.00
51781;BME280;37844;57.126;24.288;2022-10-14T21:36:25;101522.03;;;11.91;100.00
51781;BME280;37844;57.126;24.288;2022-10-14T21:38:50;101529.69;;;11.86;100.00
51781;BME280;37844;57.126;24.288;2022-10-14T21:41:16;101532.28;;;11.86;100.00
51781;BME280;37844;57.126;24.288;2022-10-14T21:43:42;101534.94;;;11.90;100.00
51781;BME280;37844;57.126;24.288;2022-10-14T21:46:10;101530.50;;;11.85;100.00
51781;BME280;37844;57.126;24.288;2022-10-14T21:48:36;101531.44;;;11.87;100.00
51781;BME280;37844;57.126;24.288;2022-10-14T21:51:04;101526.19;;;11.84;100.00
51781;BME280;37844;57.126;24.288;2022-10-14T21:53:31;101523.63;;;11.84;100.00
51781;BME280;37844;57.126;24.288;2022-10-14T21:55:57;101524.47;;;11.85;100.00
51781;BME280;37844;57.126;24.288;2022-10-14T21:58:23;101527.88;;;11.84;100.00
51781;BME280;37844;57.126;24.288;2022-10-14T22:00:48;101522.59;;;11.78;100.00
51781;BME280;37844;57.126;24.288;2022-10-14T22:03:14;101518.34;;;11.80;100.00
51781;BME280;37844;57.126;24.288;2022-10-14T22:05:42;101523.53;;;11.81;100.00
51781;BME280;37844;57.126;24.288;2022-10-14T22:08:07;101525.19;;;11.78;100.00
51781;BME280;37844;57.126;24.288;2022-10-14T22:10:36;101516.44;;;11.71;100.00
51781;BME280;37844;57.126;24.288;2022-10-14T22:13:10;101521.41;;;11.62;100.00
51781;BME280;37844;57.126;24.288;2022-10-14T22:15:40;101511.13;;;11.63;100.00
51781;BME280;37844;57.126;24.288;2022-10-14T22:18:06;101515.19;;;11.52;100.00
51781;BME280;37844;57.126;24.288;2022-10-14T22:20:31;101515.22;;;11.54;100.00
51781;BME280;37844;57.126;24.288;2022-10-14T22:22:57;101522.19;;;11.58;100.00
51781;BME280;37844;57.126;24.288;2022-10-14T22:25:24;101514.47;;;11.59;100.00
51781;BME280;37844;57.126;24.288;2022-10-14T22:27:49;101504.94;;;11.57;100.00
51781;BME280;37844;57.126;24.288;2022-10-14T22:30:15;101520.50;;;11.60;100.00
51781;BME280;37844;57.126;24.288;2022-10-14T22:32:40;101508.50;;;11.62;100.00
51781;BME280;37844;57.126;24.288;2022-10-14T22:35:06;101498.81;;;11.52;100.00
51781;BME280;37844;57.126;24.288;2022-10-14T22:37:32;101515.22;;;11.54;100.00
51781;BME280;37844;57.126;24.288;2022-10-14T22:39:57;101499.75;;;11.54;100.00
51781;BME280;37844;57.126;24.288;2022-10-14T22:42:22;101507.38;;;11.49;100.00
51781;BME280;37844;57.126;24.288;2022-10-14T22:44:48;101512.53;;;11.49;100.00
51781;BME280;37844;57.126;24.288;2022-10-14T22:47:13;101513.44;;;11.51;100.00
51781;BME280;37844;57.126;24.288;2022-10-14T22:49:39;101513.47;;;11.53;100.00
51781;BME280;37844;57.126;24.288;2022-10-14T22:52:04;101514.25;;;11.49;100.00
51781;BME280;37844;57.126;24.288;2022-10-14T22:54:30;101506.50;;;11.49;100.00
51781;BME280;37844;57.126;24.288;2022-10-14T22:56:55;101511.69;;;11.50;100.00
51781;BME280;37844;57.126;24.288;2022-10-14T22:59:20;101508.94;;;11.42;100.00
51781;BME280;37844;57.126;24.288;2022-10-14T23:01:49;101507.34;;;11.48;100.00
51781;BME280;37844;57.126;24.288;2022-10-14T23:04:15;101508.94;;;11.42;100.00
51781;BME280;37844;57.126;24.288;2022-10-14T23:06:41;101505.34;;;11.36;100.00
51781;BME280;37844;57.126;24.288;2022-10-14T23:09:09;101509.81;;;11.43;100.00
51781;BME280;37844;57.126;24.288;2022-10-14T23:11:34;101504.25;;;11.24;100.00
51781;BME280;37844;57.126;24.288;2022-10-14T23:14:00;101503.31;;;11.21;100.00
51781;BME280;37844;57.126;24.288;2022-10-14T23:16:26;101500.13;;;11.33;100.00
51781;BME280;37844;57.126;24.288;2022-10-14T23:18:52;101495.72;;;11.27;100.00
51781;BME280;37844;57.126;24.288;2022-10-14T23:23:46;101500.09;;;11.31;100.00
51781;BME280;37844;57.126;24.288;2022-10-14T23:26:17;101498.38;;;11.30;100.00
51781;BME280;37844;57.126;24.288;2022-10-14T23:28:49;101502.56;;;11.27;100.00
51781;BME280;37844;57.126;24.288;2022-10-14T23:31:17;101499.06;;;11.24;100.00
51781;BME280;37844;57.126;24.288;2022-10-14T23:33:43;101500.19;;;11.34;100.00
51781;BME280;37844;57.126;24.288;2022-10-14T23:36:11;101498.41;;;11.33;100.00
51781;BME280;37844;57.126;24.288;2022-10-14T23:38:37;101491.44;;;11.28;100.00
51781;BME280;37844;57.126;24.288;2022-10-14T23:41:03;101494.91;;;11.30;100.00
51781;BME280;37844;57.126;24.288;2022-10-14T23:43:29;101494.66;;;11.19;100.00
51781;BME280;37844;57.126;24.288;2022-10-14T23:45:55;101498.00;;;11.15;100.00
51781;BME280;37844;57.126;24.288;2022-10-14T23:48:20;101495.72;;;11.27;100.00
51781;BME280;37844;57.126;24.288;2022-10-14T23:50:46;101488.06;;;11.32;100.00
51781;BME280;37844;57.126;24.288;2022-10-14T23:53:11;101489.00;;;11.35;100.00
51781;BME280;37844;57.126;24.288;2022-10-14T23:55:37;101492.34;;;11.30;100.00
51781;BME280;37844;57.126;24.288;2022-10-14T23:58:02;101492.13;;;11.20;100.00
